Aeroporto :
LOGIN :

Iscrizione | Disclaimer

   EN    FR    IT 

 










Sommario :    VFR   VFR Marginale   IFR   IFR Intensivo   IFR Molto Intensivo
Visibilità : 
Base nubi : 
>= 8 km
>= 3000ft
5 / 8 km
1000 / 3000 ft
1500m / 5 km
500 / 1000 ft
800 / 1500m
200 / 500 ft
< 800m
< 200 ft
Simboli :   Temporali  Nebbia  Neve Forte  Precipitazioni Forti  Vento > 20 kt
SIGMETs :   Varie  Temporali  Ghiacco  Turbolenza  Onda orograficha  Ceneri Vulcaniche






- Altitudine del aeroporto : 25 ft
- Codice IATA : QCY


EGXC - RAF Coningsby

ULTIMO METAR :
  • 172150Z 36004KT CAVOK 15/13 Q1015 NOSIG RMK BLU BLU

METARs OBSOLETI :
  • 172120Z 07003KT CAVOK 15/13 Q1015 NOSIG RMK BLU BLU
  • 172050Z 03004KT CAVOK 16/13 Q1014 NOSIG RMK BLU BLU
  • 172020Z 02003KT CAVOK 16/13 Q1014 NOSIG RMK BLU BLU
  • 171950Z 04004KT CAVOK 16/13 Q1014 NOSIG RMK BLU BLU
  • 171921Z 07005KT CAVOK 16/13 Q1014 NOSIG RMK BLU BLU

TAF TAF EGXC
Valido dal 17 a 21 ore il 18 a 15 ore UTC


171936Z 1721/1815 07005KT 9999 SCT045
TEMPO 1810/1812 7000 RA
PROB30
TEMPO 1811/1815 3500 +TSRA SCT006 BKN040CB



MetMap, La meteo Aeronautica in un colpo d'occhio ! - Copyright ORBIFLY Dicembre 2007 - Disclaimer

ORBIFLY MET'MAP TEAM :

Programmazione e sviluppo : Alexandra Zaïnal
Concezione : Baudouin d'Aumeries
Aiuto per la programmazione : Marc-Olivier Méhu
Supporto tecnico e logistico : Manuel Goepfert
Aiuto per la traduzione : Arnaldo La Scala

Contatto : metmap@orbifly.com




FONTI E CREDITI :

   NOAA